Time;durP1;ratioP1;P1;durP2;ratioP2;P2;SDS_P1;SDS_P2;PMS_P1;PMS_P2;Temp;Humidity;BMP_temperature;BMP_pressure;BME280_temperature;BME280_humidity;BME280_pressure;Samples;Min_cycle;Max_cycle;Signal;HPM_P1;HPM_P2
2022/10/18 00:01:04;;;;;;;18.60;16.80;;;;;;;14.25;64.93;101299.76;107883;1292;21949;-82
2022/10/18 00:04:12;;;;;;;;;;;;;;;;;;;;;
2022/10/18 00:07:03;;;;;;;19.70;17.70;;;;;;;14.23;65.00;101299.83;107789;1292;21869;-83
2022/10/18 00:09:59;;;;;;;19.00;17.00;;;;;;;14.21;64.83;101298.48;107572;1292;21935;-82
2022/10/18 00:12:38;;;;;;;20.10;17.10;;;;;;;14.20;64.70;101298.70;107868;1292;22370;-80
2022/10/18 00:15:24;;;;;;;20.50;18.40;;;;;;;14.16;64.76;101297.48;107791;1284;21981;-81
2022/10/18 00:18:11;;;;;;;19.00;16.70;;;;;;;14.13;64.88;101297.77;108249;1284;21950;-80
2022/10/18 00:21:09;;;;;;;18.80;15.90;;;;;;;14.10;64.82;101300.16;107988;1285;22089;-81
2022/10/18 00:23:43;;;;;;;22.00;17.20;;;;;;;14.03;64.94;101302.52;107925;1285;21957;-81
2022/10/18 00:26:33;;;;;;;21.60;17.70;;;;;;;13.97;65.14;101303.79;108071;1285;22777;-82
2022/10/18 00:29:20;;;;;;;20.80;17.10;;;;;;;13.93;65.27;101305.15;108155;1287;21945;-82
2022/10/18 00:32:10;;;;;;;30.00;17.80;;;;;;;13.92;65.45;101308.19;108094;1286;22059;-84
2022/10/18 00:35:10;;;;;;;20.10;16.60;;;;;;;13.91;65.59;101307.33;107809;1289;21954;-83
2022/10/18 00:38:13;;;;;;;19.80;17.40;;;;;;;13.89;65.52;101307.21;107893;1287;23110;-83
2022/10/18 00:40:53;;;;;;;19.50;17.40;;;;;;;13.86;65.48;101307.16;107138;1289;1059061;-83
2022/10/18 00:44:07;;;;;;;21.00;18.70;;;;;;;13.83;65.71;101304.31;107522;1292;23178;-83
2022/10/18 00:47:10;;;;;;;20.50;17.80;;;;;;;13.77;65.63;101302.73;107743;1291;23806;-83
2022/10/18 00:50:33;;;;;;;24.70;20.80;;;;;;;13.73;65.78;101304.13;107543;1292;21973;-83
2022/10/18 00:53:23;;;;;;;20.70;18.70;;;;;;;13.70;65.90;101305.48;107518;1292;23641;-83
2022/10/18 00:56:06;;;;;;;21.10;19.00;;;;;;;13.68;66.06;101304.83;107745;1287;21966;-82
2022/10/18 00:59:05;;;;;;;19.90;17.90;;;;;;;13.64;65.98;101300.75;107785;1286;22076;-82
2022/10/18 01:01:56;;;;;;;22.00;17.50;;;;;;;13.57;66.04;101298.90;107628;1288;21999;-82
2022/10/18 01:05:04;;;;;;;;;;;;;;;;;;;;;
2022/10/18 01:08:12;;;;;;;;;;;;;;;;;;;;;
2022/10/18 01:11:30;;;;;;;;;;;;;;;;;;;;;
2022/10/18 01:14:43;;;;;;;23.30;16.90;;;;;;;13.47;66.47;101291.23;108274;1285;21923;-82
2022/10/18 01:17:47;;;;;;;;;;;;;;;;;;;;;
2022/10/18 01:20:46;;;;;;;20.90;16.60;;;;;;;13.41;66.36;101284.61;108338;1280;21952;-82
2022/10/18 01:24:19;;;;;;;21.60;15.80;;;;;;;13.39;66.45;101287.83;108332;1284;22398;-82
2022/10/18 01:27:11;;;;;;;19.30;17.40;;;;;;;13.34;66.62;101288.70;108549;1280;21941;-82
2022/10/18 01:30:33;;;;;;;17.40;15.80;;;;;;;13.31;66.72;101282.50;108482;1280;21953;-82
2022/10/18 01:33:40;;;;;;;18.90;15.80;;;;;;;13.24;66.61;101277.98;108417;1282;23136;-81
2022/10/18 01:36:42;;;;;;;15.80;14.30;;;;;;;13.18;66.78;101279.22;108329;1284;24276;-82
2022/10/18 01:39:49;;;;;;;22.10;16.50;;;;;;;13.19;66.99;101280.07;108339;1282;21945;-81
2022/10/18 01:42:47;;;;;;;26.50;16.00;;;;;;;13.19;66.99;101280.95;107884;1289;21945;-81
2022/10/18 01:45:29;;;;;;;19.10;17.20;;;;;;;13.22;67.04;101276.48;107442;1292;23816;-83
2022/10/18 01:48:16;;;;;;;;;;;;;;;;;;;;;
2022/10/18 01:51:57;;;;;;;;;;;;;;;;;;;;;
2022/10/18 01:54:40;;;;;;;22.20;18.70;;;;;;;13.21;66.84;101271.29;106770;1300;21986;-83
2022/10/18 01:57:39;;;;;;;19.60;17.70;;;;;;;13.22;66.91;101274.38;106654;1300;22130;-83
2022/10/18 02:00:49;;;;;;;20.30;18.40;;;;;;;13.21;67.13;101275.29;106801;1295;22408;-82
2022/10/18 02:03:36;;;;;;;22.70;20.60;;;;;;;13.19;66.95;101277.30;107247;1289;21963;-84
2022/10/18 02:06:30;;;;;;;31.50;28.80;;;;;;;13.19;67.02;101275.17;107555;1289;21945;-83
2022/10/18 02:09:49;;;;;;;30.60;27.60;;;;;;;13.19;67.16;101273.45;107346;1295;21967;-82
2022/10/18 02:12:52;;;;;;;30.20;27.10;;;;;;;13.17;67.03;101273.33;107375;1294;22299;-84
2022/10/18 02:16:26;;;;;;;32.50;29.10;;;;;;;13.15;67.10;101283.37;107786;1286;22084;-83
2022/10/18 02:19:24;;;;;;;37.40;34.30;;;;;;;13.14;67.00;101280.77;107656;1290;23801;-81
2022/10/18 02:22:39;;;;;;;37.60;34.40;;;;;;;13.11;67.08;101280.52;107349;1297;23024;-81
2022/10/18 02:25:36;;;;;;;34.90;31.70;;;;;;;13.10;66.98;101283.15;107227;1289;21975;-81
2022/10/18 02:28:30;;;;;;;33.70;30.30;;;;;;;13.03;66.87;101280.45;107259;1292;21934;-81
2022/10/18 02:31:47;;;;;;;32.40;29.20;;;;;;;13.01;67.07;101280.84;107555;1291;23620;-81
2022/10/18 02:34:29;;;;;;;29.50;26.50;;;;;;;12.95;67.28;101274.60;107611;1295;21954;-82
2022/10/18 02:37:36;;;;;;;24.70;22.60;;;;;;;12.95;67.31;101271.80;107166;1295;21972;-80
2022/10/18 02:40:36;;;;;;;24.90;22.40;;;;;;;12.94;67.39;101269.21;107738;1285;23793;-81
2022/10/18 02:43:34;;;;;;;23.40;21.00;;;;;;;12.97;67.45;101273.48;108120;1286;21957;-82
2022/10/18 02:46:36;;;;;;;23.30;21.10;;;;;;;12.96;67.42;101271.77;107878;1285;21942;-81
2022/10/18 02:49:12;;;;;;;25.10;22.30;;;;;;;12.96;67.36;101273.35;107974;1278;23156;-81
2022/10/18 02:51:43;;;;;;;24.90;22.40;;;;;;;12.95;67.32;101277.23;107443;1286;21982;-81
2022/10/18 02:54:26;;;;;;;25.10;22.80;;;;;;;12.93;67.37;101282.86;107365;1291;21950;-80
2022/10/18 02:57:03;;;;;;;25.50;22.90;;;;;;;12.92;67.43;101288.31;107082;1291;21955;-81
2022/10/18 02:59:55;;;;;;;24.80;21.10;;;;;;;12.89;67.27;101285.77;107416;1291;21971;-82
2022/10/18 03:02:38;;;;;;;22.60;20.20;;;;;;;12.86;67.47;101285.52;107046;1298;21945;-85
2022/10/18 03:05:13;;;;;;;21.10;19.00;;;;;;;12.83;67.55;101286.66;106790;1297;22005;-82
2022/10/18 03:08:06;;;;;;;21.80;19.60;;;;;;;12.78;67.37;101287.55;106842;1300;22370;-83
2022/10/18 03:10:50;;;;;;;24.60;22.20;;;;;;;12.71;67.48;101285.13;107504;1291;21964;-82
2022/10/18 03:13:33;;;;;;;;;;;;;;;;;;;;;
2022/10/18 03:16:30;;;;;;;;;;;;;;;;;;;;;
2022/10/18 03:19:30;;;;;;;;;;;;;;;;;;;;;
2022/10/18 03:22:33;;;;;;;25.70;23.20;;;;;;;12.58;68.04;101290.10;108064;1286;23857;-83
2022/10/18 03:25:18;;;;;;;30.40;27.20;;;;;;;12.59;68.12;101293.55;107787;1285;21943;-82
2022/10/18 03:28:29;;;;;;;28.60;25.60;;;;;;;12.55;68.11;101290.37;108411;1280;23019;-81
2022/10/18 03:31:29;;;;;;;28.70;25.50;;;;;;;12.51;67.94;101283.50;108384;1274;21939;-82
2022/10/18 03:34:19;;;;;;;29.20;26.10;;;;;;;12.49;68.22;101288.98;108388;1280;21953;-82
2022/10/18 03:37:10;;;;;;;30.50;27.30;;;;;;;12.49;68.16;101291.75;108426;1280;23612;-84
2022/10/18 03:39:57;;;;;;;33.10;27.80;;;;;;;12.45;68.12;101293.48;108370;1275;23603;-85
2022/10/18 03:43:01;;;;;;;;;;;;;;;;;;;;;
2022/10/18 03:45:38;;;;;;;28.70;24.20;;;;;;;12.34;68.39;101290.98;108455;1278;22003;-82
2022/10/18 03:48:37;;;;;;;29.60;26.20;;;;;;;12.31;68.66;101291.95;108785;1280;22724;-83
2022/10/18 03:51:24;;;;;;;27.80;25.00;;;;;;;12.33;68.69;101290.17;108574;1280;21937;-83
2022/10/18 03:54:05;;;;;;;29.60;26.90;;;;;;;12.31;68.63;101289.17;108662;1280;21947;-84
2022/10/18 03:56:59;;;;;;;;;;;;;;;;;;;;;
2022/10/18 04:00:05;;;;;;;29.70;26.50;;;;;;;12.23;68.75;101284.69;108406;1280;22727;-83
2022/10/18 04:02:41;;;;;;;30.30;27.40;;;;;;;12.25;68.93;101282.02;107977;1286;21949;-82
2022/10/18 04:05:35;;;;;;;;;;;;;;;12.28;69.01;101281.40;108259;1285;22714;-84
2022/10/18 04:08:05;;;;;;;33.20;30.10;;;;;;;12.20;69.01;101282.34;108056;1286;21945;-83
2022/10/18 04:10:49;;;;;;;33.70;30.60;;;;;;;12.18;68.90;101286.95;108051;1287;22339;-86
2022/10/18 04:13:42;;;;;;;32.10;29.20;;;;;;;12.16;68.94;101286.84;108067;1286;21961;-83
2022/10/18 04:16:55;;;;;;;37.60;34.00;;;;;;;12.14;69.13;101288.29;108222;1286;21941;-83
2022/10/18 04:19:28;;;;;;;37.70;33.90;;;;;;;12.14;69.03;101287.40;107369;1292;23138;-83
2022/10/18 04:22:13;;;;;;;33.80;30.80;;;;;;;12.14;69.05;101281.99;107975;1286;21964;-83
2022/10/18 04:25:06;;;;;;;38.60;34.90;;;;;;;12.10;69.11;101287.52;108015;1286;22429;-83
2022/10/18 04:28:07;;;;;;;;;;;;;;;;;;;;;
2022/10/18 04:30:53;;;;;;;39.50;35.60;;;;;;;12.04;69.23;101295.02;108071;1285;21966;-84
2022/10/18 04:33:23;;;;;;;39.80;35.90;;;;;;;12.03;69.30;101297.84;107759;1286;21977;-83
2022/10/18 04:36:25;;;;;;;37.20;33.50;;;;;;;12.01;69.23;101297.21;107529;1292;21988;-84
2022/10/18 04:39:38;;;;;;;36.40;32.80;;;;;;;11.96;69.45;101296.14;107573;1289;21950;-82
2022/10/18 04:42:18;;;;;;;;;;;;;;;;;;;;;
2022/10/18 04:44:47;;;;;;;33.80;30.80;;;;;;;11.90;69.62;101292.10;107703;1289;24989;-82
2022/10/18 04:47:22;;;;;;;36.00;32.70;;;;;;;11.89;69.67;101291.41;107435;1289;21971;-82
2022/10/18 04:50:03;;;;;;;33.00;29.80;;;;;;;11.89;69.68;101290.55;107524;1289;21844;-84
2022/10/18 04:52:50;;;;;;;34.60;31.40;;;;;;;11.87;69.68;101286.94;107612;1289;22008;-84
2022/10/18 04:55:28;;;;;;;34.00;30.70;;;;;;;11.87;69.85;101282.75;108127;1286;22095;-83
2022/10/18 04:58:14;;;;;;;35.70;32.40;;;;;;;11.89;69.90;101283.92;108222;1280;22007;-85
2022/10/18 05:00:48;;;;;;;35.60;31.90;;;;;;;11.94;69.98;101280.65;108367;1281;21996;-83
2022/10/18 05:03:53;;;;;;;35.50;30.50;;;;;;;11.96;69.83;101279.03;108473;1279;21985;-83
2022/10/18 05:06:40;;;;;;;38.00;31.60;;;;;;;11.97;69.94;101279.01;108419;1280;21963;-83
2022/10/18 05:09:15;;;;;;;33.90;28.30;;;;;;;11.99;69.82;101277.73;108004;1286;21947;-85
2022/10/18 05:12:11;;;;;;;31.80;28.50;;;;;;;12.01;69.91;101278.54;107723;1288;21971;-85
2022/10/18 05:15:07;;;;;;;35.20;31.50;;;;;;;12.02;69.82;101283.21;107701;1288;23116;-84
2022/10/18 05:17:48;;;;;;;33.20;29.80;;;;;;;12.03;69.76;101283.20;107743;1289;22413;-83
2022/10/18 05:20:47;;;;;;;32.00;28.70;;;;;;;12.04;69.86;101284.55;107732;1289;22264;-84
2022/10/18 05:23:58;;;;;;;;;;;;;;;;;;;;;
2022/10/18 05:26:40;;;;;;;31.30;28.50;;;;;;;12.12;69.84;101287.65;107754;1283;22080;-84
2022/10/18 05:29:45;;;;;;;32.20;28.90;;;;;;;12.13;69.71;101290.08;108196;1280;23622;-83
2022/10/18 05:32:30;;;;;;;35.90;30.50;;;;;;;12.14;69.61;101291.42;108551;1280;22239;-84
2022/10/18 05:35:08;;;;;;;37.10;33.30;;;;;;;12.15;69.53;101287.39;107932;1288;22412;-85
2022/10/18 05:37:48;;;;;;;36.10;32.00;;;;;;;12.16;69.49;101294.50;108012;1289;21943;-83
2022/10/18 05:40:50;;;;;;;;;;;;;;;;;;;;;
2022/10/18 05:43:28;;;;;;;32.20;28.90;;;;;;;12.16;69.33;101296.79;107977;1286;21968;-84
2022/10/18 05:46:12;;;;;;;31.60;28.60;;;;;;;12.11;69.09;101296.20;107792;1286;21971;-85
2022/10/18 05:49:23;;;;;;;;;;;;;;;;;;;;;
2022/10/18 05:52:00;;;;;;;31.60;27.70;;;;;;;12.08;69.41;101299.63;107747;1289;21963;-81
2022/10/18 05:54:40;;;;;;;38.30;30.30;;;;;;;12.11;69.58;101300.41;107995;1286;21970;-83
2022/10/18 05:57:52;;;;;;;34.40;25.70;;;;;;;12.16;69.63;101300.98;108027;1276;21984;-82
2022/10/18 06:00:54;;;;;;;34.70;26.50;;;;;;;12.21;69.66;101298.55;107964;1285;23031;-82
2022/10/18 06:04:00;;;;;;;42.60;38.30;;;;;;;12.28;69.76;101297.12;108051;1285;23157;-83
2022/10/18 06:06:44;;;;;;;39.90;35.00;;;;;;;12.34;69.69;101305.64;107789;1285;23849;-83
2022/10/18 06:09:25;;;;;;;39.80;35.20;;;;;;;12.40;69.47;101309.66;107952;1286;23092;-84
2022/10/18 06:12:17;;;;;;;41.20;34.40;;;;;;;12.46;69.42;101309.65;107981;1284;21983;-83
2022/10/18 06:14:55;;;;;;;41.10;32.70;;;;;;;12.49;69.30;101304.67;107953;1285;21946;-83
2022/10/18 06:17:52;;;;;;;38.20;29.60;;;;;;;12.52;69.19;101301.45;108060;1286;23625;-82
2022/10/18 06:21:03;;;;;;;32.70;28.10;;;;;;;12.56;69.25;101305.02;107989;1285;23076;-83
2022/10/18 06:24:06;;;;;;;;;;;;;;;;;;;;;
2022/10/18 06:26:55;;;;;;;;;;;;;;;;;;;;;
2022/10/18 06:29:41;;;;;;;32.60;28.10;;;;;;;12.77;69.15;101302.77;108433;1280;22061;-82
2022/10/18 06:32:13;;;;;;;31.10;26.40;;;;;;;12.85;69.03;101297.10;108400;1280;23711;-82
2022/10/18 06:35:08;;;;;;;29.30;26.50;;;;;;;12.89;68.74;101296.80;108438;1280;21934;-84
2022/10/18 06:37:59;;;;;;;;;;;;;;;;;;;;;
2022/10/18 06:41:05;;;;;;;29.50;25.50;;;;;;;12.95;68.67;101295.22;108411;1280;23026;-83
2022/10/18 06:44:07;;;;;;;;;;;;;;;;;;;;;
2022/10/18 06:46:48;;;;;;;25.20;22.80;;;;;;;13.06;68.42;101298.34;108680;1280;22233;-85
2022/10/18 06:49:18;;;;;;;26.40;23.30;;;;;;;13.12;68.25;101302.16;108579;1280;21927;-85
2022/10/18 06:51:56;;;;;;;31.80;24.60;;;;;;;13.22;68.28;101302.70;108460;1280;22042;-86
2022/10/18 06:54:33;;;;;;;27.20;23.40;;;;;;;13.31;68.38;101306.27;108369;1280;21947;-82
2022/10/18 06:57:03;;;;;;;27.30;24.50;;;;;;;13.41;68.08;101298.08;108389;1280;21971;-82
2022/10/18 06:59:37;;;;;;;26.90;24.20;;;;;;;13.46;67.83;101299.14;108320;1280;22008;-82
2022/10/18 07:02:06;;;;;;;25.60;22.90;;;;;;;13.50;67.61;101302.13;108327;1280;21941;-79
2022/10/18 07:04:35;;;;;;;31.40;24.10;;;;;;;13.54;67.43;101304.63;108310;1285;21950;-82
2022/10/18 07:07:05;;;;;;;24.50;21.90;;;;;;;13.58;67.25;101305.86;108081;1285;21948;-82
2022/10/18 07:09:47;;;;;;;25.80;20.70;;;;;;;13.61;67.06;101306.65;107846;1289;21945;-82
2022/10/18 07:12:33;;;;;;;27.20;22.20;;;;;;;13.66;67.24;101311.35;108067;1283;21957;-83
2022/10/18 07:15:33;;;;;;;28.70;23.10;;;;;;;13.83;67.57;101313.91;107896;1289;23097;-83
2022/10/18 07:18:21;;;;;;;;;;;;;;;;;;;;;
2022/10/18 07:21:27;;;;;;;27.70;22.00;;;;;;;14.20;67.05;101316.06;107567;1294;22076;-83
2022/10/18 07:25:27;;;;;;;;;;;;;;;;;;;;;
2022/10/18 07:28:33;;;;;;;39.20;23.50;;;;;;;14.79;66.97;101310.84;108113;1285;22494;-82
2022/10/18 07:31:26;;;;;;;;;;;;;;;;;;;;;
2022/10/18 07:34:13;;;;;;;26.00;20.50;;;;;;;15.49;66.39;101311.27;108069;1286;22916;-82
2022/10/18 07:37:52;;;;;;;;;;;;;;;;;;;;;
2022/10/18 07:40:27;;;;;;;19.40;17.30;;;;;;;16.25;65.25;101308.80;107869;1286;24302;-78
2022/10/18 07:43:42;;;;;;;18.10;16.40;;;;;;;16.61;64.51;101310.44;107934;1285;22635;-78
2022/10/18 07:47:00;;;;;;;25.70;23.00;;;;;;;17.00;63.87;101315.95;107723;1286;22825;-78
2022/10/18 07:50:19;;;;;;;;;;;;;;;;;;;;;
2022/10/18 07:53:33;;;;;;;;;;;;;;;;;;;;;
2022/10/18 07:56:45;;;;;;;24.20;18.10;;;;;;;18.00;61.16;101316.33;108116;1280;23576;-78
2022/10/18 08:00:11;;;;;;;;;;;;;;;;;;;;;
2022/10/18 08:03:02;;;;;;;31.50;21.80;;;;;;;18.34;59.01;101315.55;107751;1286;21995;-78
2022/10/18 08:06:21;;;;;;;;;;;;;;;;;;;;;
2022/10/18 08:09:16;;;;;;;27.40;21.20;;;;;;;18.57;58.04;101312.84;107610;1286;23774;-77
2022/10/18 08:12:16;;;;;;;21.60;17.90;;;;;;;18.49;56.75;101310.64;107540;1286;23207;-77
2022/10/18 08:15:05;;;;;;;23.50;17.50;;;;;;;18.39;57.33;101307.69;107777;1285;22008;-77
2022/10/18 08:17:59;;;;;;;22.50;18.00;;;;;;;18.48;57.65;101307.73;107756;1283;23661;-78
2022/10/18 08:21:19;;;;;;;19.50;17.50;;;;;;;18.55;57.71;101297.83;107852;1283;23150;-80
2022/10/18 08:24:24;;;;;;;;;;;;;;;;;;;;;
2022/10/18 08:27:33;;;;;;;;;;;;;;;;;;;;;
2022/10/18 08:30:24;;;;;;;30.50;23.90;;;;;;;19.19;57.24;101286.59;107288;1289;23686;-78
2022/10/18 08:33:48;;;;;;;22.00;19.10;;;;;;;19.23;56.27;101281.42;106944;1295;23092;-77
2022/10/18 08:36:56;;;;;;;25.40;20.40;;;;;;;19.15;55.87;101273.75;106887;1296;22010;-78
2022/10/18 08:40:09;;;;;;;21.00;19.00;;;;;;;19.11;55.97;101267.29;106416;1300;22769;-78
2022/10/18 08:43:33;;;;;;;;;;;;;;;;;;;;;
2022/10/18 08:47:33;;;;;;;33.00;25.60;;;;;;;19.12;56.47;101257.73;106436;1298;21967;-77
2022/10/18 08:50:48;;;;;;;;;;;;;;;;;;;;;
2022/10/18 08:54:07;;;;;;;28.50;20.90;;;;;;;19.09;56.26;101251.52;106140;1303;24380;-78
2022/10/18 08:57:13;;;;;;;;;;;;;;;;;;;;;
2022/10/18 09:00:11;;;;;;;23.80;19.90;;;;;;;19.24;57.24;101252.55;106632;1296;22030;-78
2022/10/18 09:03:38;;;;;;;;;;;;;;;;;;;;;
2022/10/18 09:07:42;;;;;;;26.40;23.60;;;;;;;19.48;56.75;101256.77;107236;1293;22941;-77
2022/10/18 09:11:30;;;;;;;23.50;21.50;;;;;;;19.62;56.59;101255.77;107168;1294;21969;-78
2022/10/18 09:14:55;;;;;;;26.50;23.50;;;;;;;19.68;56.35;101262.63;106804;1297;21996;-77
2022/10/18 09:18:23;;;;;;;25.00;21.20;;;;;;;19.68;56.24;101263.14;106725;1299;22064;-78
2022/10/18 09:21:29;;;;;;;;;;;;;;;;;;;;;
2022/10/18 09:24:22;;;;;;;24.50;22.00;;;;;;;19.54;56.54;101261.39;106857;1294;23685;-76
2022/10/18 09:27:16;;;;;;;24.20;21.50;;;;;;;19.53;56.71;101256.30;106766;1291;21948;-77
2022/10/18 09:30:19;;;;;;;22.60;20.20;;;;;;;19.53;56.81;101254.35;107092;1290;22029;-77
2022/10/18 09:33:19;;;;;;;;;;;;;;;19.59;57.22;101250.63;107660;1286;23088;-77
2022/10/18 09:36:00;;;;;;;23.80;20.90;;;;;;;19.63;57.52;101246.31;107397;1289;21957;-77
2022/10/18 09:38:45;;;;;;;28.10;23.90;;;;;;;19.73;57.20;101248.89;107105;1292;22358;-77
2022/10/18 09:41:49;;;;;;;25.90;21.70;;;;;;;19.84;57.08;101245.77;107130;1292;22052;-77
2022/10/18 09:44:32;;;;;;;25.50;21.90;;;;;;;19.93;56.84;101243.67;107357;1286;21960;-77
2022/10/18 09:47:25;;;;;;;27.30;24.10;;;;;;;19.99;56.85;101236.54;107710;1286;21965;-77
2022/10/18 09:50:16;;;;;;;25.20;22.80;;;;;;;20.04;56.68;101234.66;107756;1286;22084;-78
2022/10/18 09:53:24;;;;;;;23.60;21.20;;;;;;;20.06;56.60;101227.80;107893;1284;24976;-79
2022/10/18 09:56:43;;;;;;;24.40;21.90;;;;;;;20.07;56.71;101220.27;108069;1285;22365;-79
2022/10/18 09:59:49;;;;;;;26.60;23.90;;;;;;;20.12;56.57;101216.65;107105;1290;24292;-80
2022/10/18 10:02:25;;;;;;;55.60;49.80;;;;;;;20.22;56.68;101213.88;107122;1294;23042;-81
2022/10/18 10:05:15;;;;;;;27.20;24.20;;;;;;;20.34;56.56;101206.59;107146;1297;21964;-80
2022/10/18 10:08:18;;;;;;;29.10;24.00;;;;;;;20.40;56.39;101203.00;107188;1295;21985;-79
2022/10/18 10:11:33;;;;;;;;;;;;;;;;;;;;;
2022/10/18 10:14:21;;;;;;;25.80;23.00;;;;;;;20.53;56.51;101197.53;107429;1291;22296;-80
2022/10/18 10:17:05;;;;;;;26.90;24.30;;;;;;;20.63;56.13;101193.70;107536;1286;21967;-82
2022/10/18 10:20:03;;;;;;;28.50;24.50;;;;;;;20.69;56.03;101188.90;107898;1286;21955;-78
2022/10/18 10:22:47;;;;;;;30.80;26.50;;;;;;;20.78;55.96;101185.14;107602;1286;22286;-81
2022/10/18 10:25:33;;;;;;;26.70;23.00;;;;;;;20.80;55.24;101179.66;107598;1289;23716;-82
2022/10/18 10:28:17;;;;;;;27.00;23.80;;;;;;;20.76;54.98;101171.66;107994;1289;22319;-80
2022/10/18 10:31:18;;;;;;;47.40;25.90;;;;;;;20.74;55.23;101168.73;107871;1282;23070;-77
2022/10/18 10:34:16;;;;;;;26.40;22.10;;;;;;;20.77;55.51;101162.54;108301;1280;21933;-77
2022/10/18 10:37:40;;;;;;;32.50;22.20;;;;;;;20.80;55.31;101156.69;108367;1279;21920;-78
2022/10/18 10:40:29;;;;;;;26.10;22.40;;;;;;;20.83;55.23;101157.51;108130;1279;21952;-77
2022/10/18 10:43:09;;;;;;;25.60;22.80;;;;;;;20.79;54.80;101154.80;108177;1280;22091;-78
2022/10/18 10:46:25;;;;;;;24.30;21.90;;;;;;;20.74;54.96;101145.77;108194;1282;21952;-78
2022/10/18 10:49:03;;;;;;;28.80;23.60;;;;;;;20.74;55.21;101135.54;107959;1284;23053;-78
2022/10/18 10:52:06;;;;;;;32.50;23.30;;;;;;;20.81;55.30;101137.33;108009;1280;22451;-77
2022/10/18 10:55:02;;;;;;;26.90;23.50;;;;;;;20.75;54.83;101135.77;107589;1287;22742;-78
2022/10/18 10:58:00;;;;;;;26.80;23.70;;;;;;;20.74;55.08;101131.77;107547;1289;21999;-77
2022/10/18 11:00:44;;;;;;;27.20;23.00;;;;;;;20.78;55.06;101131.66;107400;1289;23782;-77
2022/10/18 11:03:23;;;;;;;24.70;22.20;;;;;;;20.82;55.08;101129.45;107533;1289;23620;-77
2022/10/18 11:05:59;;;;;;;26.00;22.10;;;;;;;20.86;55.01;101133.06;107545;1289;21949;-77
2022/10/18 11:08:42;;;;;;;26.70;23.40;;;;;;;20.87;54.85;101129.48;107729;1286;24375;-77
2022/10/18 11:11:31;;;;;;;28.10;25.30;;;;;;;20.86;54.77;101125.31;107722;1286;22039;-76
2022/10/18 11:14:23;;;;;;;43.10;38.70;;;;;;;20.80;54.75;101119.50;108036;1280;21942;-77
2022/10/18 11:17:29;;;;;;;27.80;24.60;;;;;;;20.70;54.67;101111.55;108120;1280;21949;-78
2022/10/18 11:20:06;;;;;;;28.60;25.70;;;;;;;20.59;54.99;101105.19;108157;1280;23699;-78
2022/10/18 11:23:04;;;;;;;27.30;23.70;;;;;;;20.51;55.19;101101.64;108137;1280;22641;-78
2022/10/18 11:26:11;;;;;;;33.90;30.40;;;;;;;20.46;55.46;101095.98;108205;1280;22005;-77
2022/10/18 11:29:04;;;;;;;28.70;25.80;;;;;;;20.41;55.90;101093.69;108311;1280;21995;-78
2022/10/18 11:32:23;;;;;;;25.30;22.40;;;;;;;20.40;56.05;101090.03;108140;1283;23081;-76
2022/10/18 11:35:38;;;;;;;33.60;28.10;;;;;;;20.37;56.24;101084.43;108225;1280;22215;-77
2022/10/18 11:38:48;;;;;;;26.40;23.50;;;;;;;20.40;56.69;101075.55;108344;1271;22996;-79
2022/10/18 11:41:29;;;;;;;27.30;21.90;;;;;;;20.53;57.01;101066.17;108162;1280;21928;-78
2022/10/18 11:44:29;;;;;;;28.60;25.80;;;;;;;20.64;56.62;101061.76;108161;1280;21950;-78
2022/10/18 11:47:47;;;;;;;26.20;23.60;;;;;;;20.63;56.33;101058.30;108155;1277;22029;-78
2022/10/18 11:50:50;;;;;;;24.90;22.30;;;;;;;20.62;56.11;101049.70;108186;1276;21946;-78
2022/10/18 11:54:00;;;;;;;25.40;22.60;;;;;;;20.59;55.88;101043.67;108205;1280;23614;-78
2022/10/18 11:56:56;;;;;;;26.50;23.80;;;;;;;20.58;56.31;101048.17;108453;1280;22031;-81
2022/10/18 12:00:40;;;;;;;38.70;35.30;;;;;;;20.59;56.21;101048.92;108376;1280;21953;-81
2022/10/18 12:03:41;;;;;;;28.40;22.00;;;;;;;20.63;56.41;101042.13;107865;1273;21943;-78
2022/10/18 12:06:30;;;;;;;24.00;21.50;;;;;;;20.73;56.55;101034.56;107300;1291;22761;-81
2022/10/18 12:10:01;;;;;;;26.00;23.10;;;;;;;20.82;56.32;101030.23;107252;1291;22751;-78
2022/10/18 12:13:44;;;;;;;25.50;22.90;;;;;;;20.85;56.24;101033.95;106462;1297;23801;-77
2022/10/18 12:16:39;;;;;;;24.80;22.50;;;;;;;20.81;55.96;101033.86;106397;1297;21969;-79
2022/10/18 12:19:51;;;;;;;25.90;22.20;;;;;;;20.75;56.10;101033.71;106259;1303;21985;-78
2022/10/18 12:22:42;;;;;;;27.00;24.20;;;;;;;20.69;55.78;101024.10;106805;1298;23842;-79
2022/10/18 12:25:43;;;;;;;25.60;23.00;;;;;;;20.62;55.99;101022.58;107052;1294;23042;-79
2022/10/18 12:28:50;;;;;;;25.60;22.80;;;;;;;20.56;55.96;101014.36;106265;1300;21963;-78
2022/10/18 12:32:24;;;;;;;33.60;24.30;;;;;;;20.44;56.20;101007.88;107859;1299;22007;-77
2022/10/18 12:35:19;;;;;;;25.00;21.80;;;;;;;20.35;56.69;100990.30;106374;1298;23615;-78
2022/10/18 12:38:20;;;;;;;25.40;22.60;;;;;;;20.40;56.87;100973.18;106459;1300;23141;-79
2022/10/18 12:41:04;;;;;;;28.40;20.30;;;;;;;20.37;56.81;100957.34;105231;1303;1112480;-78
2022/10/18 12:44:06;;;;;;;25.20;22.60;;;;;;;20.40;57.11;100954.10;106130;1303;23683;-79
2022/10/18 12:46:58;;;;;;;24.40;21.90;;;;;;;20.44;56.81;100956.83;106451;1297;21962;-79
2022/10/18 12:49:44;;;;;;;26.20;23.30;;;;;;;20.39;56.60;100958.95;107288;1291;22915;-79
2022/10/18 12:52:32;;;;;;;26.70;23.60;;;;;;;20.30;56.42;100960.94;107165;1291;22095;-77
2022/10/18 12:55:50;;;;;;;26.10;22.60;;;;;;;20.23;56.81;100959.33;107998;1286;21951;-78
2022/10/18 12:58:49;;;;;;;;;;;;;;;;;;;;;
2022/10/18 13:02:16;;;;;;;;;;;;;;;;;;;;;
2022/10/18 13:05:48;;;;;;;28.10;25.20;;;;;;;20.20;57.22;100946.81;108415;1282;24314;-77
2022/10/18 13:08:44;;;;;;;28.20;24.80;;;;;;;20.19;57.41;100938.79;108337;1282;21954;-77
2022/10/18 13:12:11;;;;;;;27.50;24.60;;;;;;;20.16;57.59;100925.70;108536;1283;22883;-78
2022/10/18 13:15:36;;;;;;;29.60;26.10;;;;;;;20.13;57.74;100924.16;108559;1282;21949;-78
2022/10/18 13:18:56;;;;;;;34.90;26.60;;;;;;;20.06;57.89;100928.34;108892;1281;21955;-79
2022/10/18 13:21:58;;;;;;;29.20;26.20;;;;;;;19.99;58.09;100931.46;107906;1286;23613;-78
2022/10/18 13:25:09;;;;;;;28.60;25.70;;;;;;;19.86;58.37;100928.80;107438;1288;21969;-77
2022/10/18 13:28:07;;;;;;;34.40;30.80;;;;;;;19.72;58.84;100931.15;107133;1291;22134;-78
2022/10/18 13:31:38;;;;;;;29.80;26.70;;;;;;;19.68;59.40;100930.37;107447;1289;21956;-77
2022/10/18 13:34:33;;;;;;;28.10;25.40;;;;;;;19.60;59.83;100933.16;106835;1297;23110;-79
2022/10/18 13:37:23;;;;;;;29.50;24.50;;;;;;;19.58;60.39;100934.73;106616;1297;21986;-77
2022/10/18 13:41:08;;;;;;;28.50;25.40;;;;;;;19.58;60.58;100936.46;106763;1297;21980;-79
2022/10/18 13:44:23;;;;;;;28.10;25.10;;;;;;;19.47;60.85;100940.70;106185;1300;21943;-77
2022/10/18 13:47:52;;;;;;;30.90;27.80;;;;;;;19.35;61.53;100957.90;106784;1289;21968;-78
2022/10/18 13:50:37;;;;;;;35.00;29.90;;;;;;;19.30;61.65;100971.48;106408;1300;21945;-78
2022/10/18 13:53:48;;;;;;;36.50;32.40;;;;;;;19.19;61.80;100982.25;105962;1306;24375;-77
2022/10/18 13:56:56;;;;;;;35.40;31.70;;;;;;;18.94;62.17;100997.55;106072;1305;21974;-77
2022/10/18 14:00:20;;;;;;;31.20;27.90;;;;;;;18.72;62.87;101011.05;106115;1301;24520;-78
2022/10/18 14:03:48;;;;;;;22.10;19.90;;;;;;;18.43;63.37;101020.56;105954;1309;22032;-78
2022/10/18 14:06:43;;;;;;;13.50;11.60;;;;;;;18.00;63.65;101026.77;105906;1309;23132;-78
2022/10/18 14:09:32;;;;;;;10.90;9.70;;;;;;;17.58;64.29;101035.73;105823;1309;22785;-77
2022/10/18 14:12:26;;;;;;;8.30;7.40;;;;;;;17.26;64.92;101048.03;106426;1297;22913;-78
2022/10/18 14:15:22;;;;;;;7.80;6.50;;;;;;;16.99;65.39;101044.55;107381;1289;22084;-78
2022/10/18 14:18:14;;;;;;;7.60;6.40;;;;;;;16.72;65.81;101046.27;107638;1288;22016;-77
2022/10/18 14:21:09;;;;;;;6.70;5.80;;;;;;;16.46;66.40;101043.75;107655;1288;21979;-79
2022/10/18 14:24:07;;;;;;;8.70;7.80;;;;;;;16.21;66.77;101028.55;107595;1289;22814;-77